sensor_id;sensor_type;location;lat;lon;timestamp;P1;durP1;ratioP1;P2;durP2;ratioP2
22363;SDS011;11349;53.412;-1.328;2023-08-06T00:00:25;10.23;;;3.53;;
22363;SDS011;11349;53.412;-1.328;2023-08-06T00:02:51;8.18;;;3.88;;
22363;SDS011;11349;53.412;-1.328;2023-08-06T00:05:16;7.75;;;3.78;;
22363;SDS011;11349;53.412;-1.328;2023-08-06T00:07:48;8.88;;;4.25;;
22363;SDS011;11349;53.412;-1.328;2023-08-06T00:10:14;8.90;;;3.90;;
22363;SDS011;11349;53.412;-1.328;2023-08-06T00:12:40;7.32;;;3.42;;
22363;SDS011;11349;53.412;-1.328;2023-08-06T00:15:06;7.55;;;3.47;;
22363;SDS011;11349;53.412;-1.328;2023-08-06T00:17:33;5.38;;;3.15;;
22363;SDS011;11349;53.412;-1.328;2023-08-06T00:19:59;4.97;;;3.30;;
22363;SDS011;11349;53.412;-1.328;2023-08-06T00:22:30;8.20;;;3.45;;
22363;SDS011;11349;53.412;-1.328;2023-08-06T00:24:57;11.75;;;3.35;;
22363;SDS011;11349;53.412;-1.328;2023-08-06T00:27:22;8.13;;;3.90;;
22363;SDS011;11349;53.412;-1.328;2023-08-06T00:29:48;7.55;;;3.45;;
22363;SDS011;11349;53.412;-1.328;2023-08-06T00:32:14;10.63;;;3.83;;
22363;SDS011;11349;53.412;-1.328;2023-08-06T00:34:40;6.75;;;3.38;;
22363;SDS011;11349;53.412;-1.328;2023-08-06T00:37:06;6.53;;;3.30;;
22363;SDS011;11349;53.412;-1.328;2023-08-06T00:39:31;6.93;;;3.35;;
22363;SDS011;11349;53.412;-1.328;2023-08-06T00:41:57;6.70;;;3.35;;
22363;SDS011;11349;53.412;-1.328;2023-08-06T00:44:23;8.93;;;3.78;;
22363;SDS011;11349;53.412;-1.328;2023-08-06T00:46:49;6.60;;;2.92;;
22363;SDS011;11349;53.412;-1.328;2023-08-06T00:49:15;6.90;;;3.25;;
22363;SDS011;11349;53.412;-1.328;2023-08-06T00:51:41;12.77;;;3.97;;
22363;SDS011;11349;53.412;-1.328;2023-08-06T00:54:08;7.90;;;4.28;;
22363;SDS011;11349;53.412;-1.328;2023-08-06T00:56:34;7.88;;;3.80;;
22363;SDS011;11349;53.412;-1.328;2023-08-06T00:59:01;7.10;;;3.30;;
22363;SDS011;11349;53.412;-1.328;2023-08-06T01:01:27;8.57;;;3.80;;
22363;SDS011;11349;53.412;-1.328;2023-08-06T01:03:53;5.82;;;3.22;;
22363;SDS011;11349;53.412;-1.328;2023-08-06T01:06:19;6.30;;;3.40;;
22363;SDS011;11349;53.412;-1.328;2023-08-06T01:09:05;7.38;;;3.80;;
22363;SDS011;11349;53.412;-1.328;2023-08-06T01:12:00;10.45;;;3.17;;
22363;SDS011;11349;53.412;-1.328;2023-08-06T01:17:46;9.90;;;3.85;;
22363;SDS011;11349;53.412;-1.328;2023-08-06T01:20:13;8.15;;;3.38;;
22363;SDS011;11349;53.412;-1.328;2023-08-06T01:22:39;7.70;;;3.88;;
22363;SDS011;11349;53.412;-1.328;2023-08-06T01:25:04;5.93;;;3.80;;
22363;SDS011;11349;53.412;-1.328;2023-08-06T01:27:50;7.35;;;3.15;;
22363;SDS011;11349;53.412;-1.328;2023-08-06T01:30:22;8.60;;;4.03;;
22363;SDS011;11349;53.412;-1.328;2023-08-06T01:32:53;6.90;;;3.17;;
22363;SDS011;11349;53.412;-1.328;2023-08-06T01:35:25;7.22;;;3.42;;
22363;SDS011;11349;53.412;-1.328;2023-08-06T01:37:52;8.15;;;3.35;;
22363;SDS011;11349;53.412;-1.328;2023-08-06T01:40:19;10.45;;;3.60;;
22363;SDS011;11349;53.412;-1.328;2023-08-06T01:42:45;6.80;;;3.38;;
22363;SDS011;11349;53.412;-1.328;2023-08-06T01:45:10;8.45;;;3.80;;
22363;SDS011;11349;53.412;-1.328;2023-08-06T01:47:36;7.85;;;3.30;;
22363;SDS011;11349;53.412;-1.328;2023-08-06T01:50:02;7.38;;;3.10;;
22363;SDS011;11349;53.412;-1.328;2023-08-06T01:52:28;7.45;;;3.22;;
22363;SDS011;11349;53.412;-1.328;2023-08-06T01:54:54;6.35;;;3.05;;
22363;SDS011;11349;53.412;-1.328;2023-08-06T01:57:20;7.60;;;3.13;;
22363;SDS011;11349;53.412;-1.328;2023-08-06T01:59:46;7.90;;;3.10;;
22363;SDS011;11349;53.412;-1.328;2023-08-06T02:02:11;8.15;;;3.00;;
22363;SDS011;11349;53.412;-1.328;2023-08-06T02:04:37;6.72;;;3.50;;
22363;SDS011;11349;53.412;-1.328;2023-08-06T02:07:03;8.70;;;3.60;;
22363;SDS011;11349;53.412;-1.328;2023-08-06T02:09:29;6.07;;;3.20;;
22363;SDS011;11349;53.412;-1.328;2023-08-06T02:11:55;5.57;;;3.40;;
22363;SDS011;11349;53.412;-1.328;2023-08-06T02:14:20;6.28;;;3.20;;
22363;SDS011;11349;53.412;-1.328;2023-08-06T02:16:46;6.60;;;3.58;;
22363;SDS011;11349;53.412;-1.328;2023-08-06T02:19:12;8.63;;;3.65;;
22363;SDS011;11349;53.412;-1.328;2023-08-06T02:21:37;9.23;;;3.17;;
22363;SDS011;11349;53.412;-1.328;2023-08-06T02:24:03;8.98;;;2.80;;
22363;SDS011;11349;53.412;-1.328;2023-08-06T02:26:29;7.35;;;3.28;;
22363;SDS011;11349;53.412;-1.328;2023-08-06T02:28:55;5.45;;;3.22;;
22363;SDS011;11349;53.412;-1.328;2023-08-06T02:31:20;7.47;;;3.67;;
22363;SDS011;11349;53.412;-1.328;2023-08-06T02:33:46;8.00;;;3.72;;
22363;SDS011;11349;53.412;-1.328;2023-08-06T02:36:12;7.65;;;3.17;;
22363;SDS011;11349;53.412;-1.328;2023-08-06T02:38:37;6.75;;;3.50;;
22363;SDS011;11349;53.412;-1.328;2023-08-06T02:41:03;6.25;;;3.28;;
22363;SDS011;11349;53.412;-1.328;2023-08-06T02:43:29;6.95;;;3.50;;
22363;SDS011;11349;53.412;-1.328;2023-08-06T02:45:59;6.07;;;3.22;;
22363;SDS011;11349;53.412;-1.328;2023-08-06T02:48:25;7.65;;;3.28;;
22363;SDS011;11349;53.412;-1.328;2023-08-06T02:50:50;8.00;;;2.67;;
22363;SDS011;11349;53.412;-1.328;2023-08-06T02:53:16;8.57;;;3.28;;
22363;SDS011;11349;53.412;-1.328;2023-08-06T02:55:46;7.20;;;3.03;;
22363;SDS011;11349;53.412;-1.328;2023-08-06T02:58:15;7.70;;;3.15;;
22363;SDS011;11349;53.412;-1.328;2023-08-06T03:00:42;8.27;;;3.05;;
22363;SDS011;11349;53.412;-1.328;2023-08-06T03:03:08;8.40;;;3.20;;
22363;SDS011;11349;53.412;-1.328;2023-08-06T03:05:34;5.95;;;3.40;;
22363;SDS011;11349;53.412;-1.328;2023-08-06T03:08:00;8.32;;;3.42;;
22363;SDS011;11349;53.412;-1.328;2023-08-06T03:10:26;7.93;;;3.80;;
22363;SDS011;11349;53.412;-1.328;2023-08-06T03:12:52;7.15;;;3.78;;
22363;SDS011;11349;53.412;-1.328;2023-08-06T03:15:18;6.45;;;3.30;;
22363;SDS011;11349;53.412;-1.328;2023-08-06T03:17:43;7.50;;;3.85;;
22363;SDS011;11349;53.412;-1.328;2023-08-06T03:20:09;5.57;;;2.90;;
22363;SDS011;11349;53.412;-1.328;2023-08-06T03:22:35;6.75;;;3.00;;
22363;SDS011;11349;53.412;-1.328;2023-08-06T03:25:01;7.40;;;3.50;;
22363;SDS011;11349;53.412;-1.328;2023-08-06T03:27:26;9.73;;;3.47;;
22363;SDS011;11349;53.412;-1.328;2023-08-06T03:29:52;5.97;;;3.17;;
22363;SDS011;11349;53.412;-1.328;2023-08-06T03:32:18;7.05;;;3.10;;
22363;SDS011;11349;53.412;-1.328;2023-08-06T03:34:44;5.55;;;3.10;;
22363;SDS011;11349;53.412;-1.328;2023-08-06T03:37:09;4.93;;;2.88;;
22363;SDS011;11349;53.412;-1.328;2023-08-06T03:39:35;8.15;;;3.53;;
22363;SDS011;11349;53.412;-1.328;2023-08-06T03:42:01;6.45;;;3.25;;
22363;SDS011;11349;53.412;-1.328;2023-08-06T03:44:26;6.13;;;2.97;;
22363;SDS011;11349;53.412;-1.328;2023-08-06T03:46:53;5.60;;;3.10;;
22363;SDS011;11349;53.412;-1.328;2023-08-06T03:49:19;7.43;;;3.10;;
22363;SDS011;11349;53.412;-1.328;2023-08-06T03:51:44;8.68;;;3.03;;
22363;SDS011;11349;53.412;-1.328;2023-08-06T03:54:11;7.70;;;3.38;;
22363;SDS011;11349;53.412;-1.328;2023-08-06T03:56:36;6.00;;;3.35;;
22363;SDS011;11349;53.412;-1.328;2023-08-06T03:59:02;5.63;;;2.65;;
22363;SDS011;11349;53.412;-1.328;2023-08-06T04:01:28;5.32;;;3.15;;
22363;SDS011;11349;53.412;-1.328;2023-08-06T04:03:53;9.50;;;2.85;;
22363;SDS011;11349;53.412;-1.328;2023-08-06T04:06:19;6.45;;;3.22;;
22363;SDS011;11349;53.412;-1.328;2023-08-06T04:08:45;5.95;;;3.30;;
22363;SDS011;11349;53.412;-1.328;2023-08-06T04:11:10;5.53;;;2.80;;
22363;SDS011;11349;53.412;-1.328;2023-08-06T04:13:37;9.65;;;3.30;;
22363;SDS011;11349;53.412;-1.328;2023-08-06T04:16:03;9.77;;;4.07;;
22363;SDS011;11349;53.412;-1.328;2023-08-06T04:18:29;7.82;;;3.20;;
22363;SDS011;11349;53.412;-1.328;2023-08-06T04:20:55;6.90;;;3.05;;
22363;SDS011;11349;53.412;-1.328;2023-08-06T04:23:22;6.03;;;2.72;;
22363;SDS011;11349;53.412;-1.328;2023-08-06T04:25:48;5.60;;;3.10;;
22363;SDS011;11349;53.412;-1.328;2023-08-06T04:28:13;7.32;;;3.45;;
22363;SDS011;11349;53.412;-1.328;2023-08-06T04:30:39;6.90;;;2.80;;
22363;SDS011;11349;53.412;-1.328;2023-08-06T04:33:05;5.22;;;2.53;;
22363;SDS011;11349;53.412;-1.328;2023-08-06T04:35:31;5.45;;;2.78;;
22363;SDS011;11349;53.412;-1.328;2023-08-06T04:37:56;6.03;;;2.97;;
22363;SDS011;11349;53.412;-1.328;2023-08-06T04:40:22;9.52;;;2.65;;
22363;SDS011;11349;53.412;-1.328;2023-08-06T04:42:48;8.23;;;2.63;;
22363;SDS011;11349;53.412;-1.328;2023-08-06T04:45:13;9.32;;;2.83;;
22363;SDS011;11349;53.412;-1.328;2023-08-06T04:47:39;5.00;;;2.88;;
22363;SDS011;11349;53.412;-1.328;2023-08-06T04:50:05;6.35;;;2.65;;
22363;SDS011;11349;53.412;-1.328;2023-08-06T04:52:31;5.43;;;2.60;;
22363;SDS011;11349;53.412;-1.328;2023-08-06T04:54:57;6.00;;;2.60;;
22363;SDS011;11349;53.412;-1.328;2023-08-06T04:57:23;5.82;;;2.83;;
22363;SDS011;11349;53.412;-1.328;2023-08-06T04:59:48;6.03;;;2.95;;
22363;SDS011;11349;53.412;-1.328;2023-08-06T05:02:14;5.95;;;3.47;;
22363;SDS011;11349;53.412;-1.328;2023-08-06T05:04:42;5.93;;;2.78;;
22363;SDS011;11349;53.412;-1.328;2023-08-06T05:07:08;5.97;;;2.47;;
22363;SDS011;11349;53.412;-1.328;2023-08-06T05:09:35;5.40;;;2.72;;
22363;SDS011;11349;53.412;-1.328;2023-08-06T05:12:01;5.43;;;2.58;;
22363;SDS011;11349;53.412;-1.328;2023-08-06T05:14:27;5.82;;;2.90;;
22363;SDS011;11349;53.412;-1.328;2023-08-06T05:16:53;7.60;;;3.35;;
22363;SDS011;11349;53.412;-1.328;2023-08-06T05:19:19;6.20;;;2.63;;
22363;SDS011;11349;53.412;-1.328;2023-08-06T05:21:44;6.47;;;2.85;;
22363;SDS011;11349;53.412;-1.328;2023-08-06T05:24:10;6.35;;;2.80;;
22363;SDS011;11349;53.412;-1.328;2023-08-06T05:26:37;7.35;;;3.08;;
22363;SDS011;11349;53.412;-1.328;2023-08-06T05:29:02;6.57;;;2.97;;
22363;SDS011;11349;53.412;-1.328;2023-08-06T05:31:28;5.55;;;2.47;;
22363;SDS011;11349;53.412;-1.328;2023-08-06T05:33:54;5.82;;;2.85;;
22363;SDS011;11349;53.412;-1.328;2023-08-06T05:36:20;5.85;;;3.13;;
22363;SDS011;11349;53.412;-1.328;2023-08-06T05:38:46;6.03;;;3.30;;
22363;SDS011;11349;53.412;-1.328;2023-08-06T05:41:12;5.70;;;2.90;;
22363;SDS011;11349;53.412;-1.328;2023-08-06T05:43:38;11.23;;;4.00;;
22363;SDS011;11349;53.412;-1.328;2023-08-06T05:46:04;8.43;;;3.25;;
22363;SDS011;11349;53.412;-1.328;2023-08-06T05:48:30;6.43;;;2.72;;
22363;SDS011;11349;53.412;-1.328;2023-08-06T05:50:56;6.78;;;3.30;;
22363;SDS011;11349;53.412;-1.328;2023-08-06T05:53:23;6.50;;;3.03;;
22363;SDS011;11349;53.412;-1.328;2023-08-06T05:55:49;6.95;;;3.40;;
22363;SDS011;11349;53.412;-1.328;2023-08-06T05:58:15;5.60;;;2.58;;
22363;SDS011;11349;53.412;-1.328;2023-08-06T06:00:41;6.40;;;3.22;;
22363;SDS011;11349;53.412;-1.328;2023-08-06T06:03:07;4.97;;;2.83;;
22363;SDS011;11349;53.412;-1.328;2023-08-06T06:05:32;7.88;;;2.88;;
22363;SDS011;11349;53.412;-1.328;2023-08-06T06:07:58;6.63;;;3.13;;
22363;SDS011;11349;53.412;-1.328;2023-08-06T06:10:24;5.55;;;2.70;;
22363;SDS011;11349;53.412;-1.328;2023-08-06T06:12:49;6.95;;;2.90;;
22363;SDS011;11349;53.412;-1.328;2023-08-06T06:15:15;5.28;;;2.70;;
22363;SDS011;11349;53.412;-1.328;2023-08-06T06:17:41;5.15;;;2.42;;
22363;SDS011;11349;53.412;-1.328;2023-08-06T06:20:06;4.47;;;2.33;;
22363;SDS011;11349;53.412;-1.328;2023-08-06T06:22:32;7.22;;;2.97;;
22363;SDS011;11349;53.412;-1.328;2023-08-06T06:24:58;4.32;;;2.38;;
22363;SDS011;11349;53.412;-1.328;2023-08-06T06:27:24;7.15;;;2.40;;
22363;SDS011;11349;53.412;-1.328;2023-08-06T06:29:49;4.72;;;2.35;;
22363;SDS011;11349;53.412;-1.328;2023-08-06T06:32:17;5.97;;;2.58;;
22363;SDS011;11349;53.412;-1.328;2023-08-06T06:34:43;5.00;;;2.53;;
22363;SDS011;11349;53.412;-1.328;2023-08-06T06:37:08;8.35;;;2.38;;
22363;SDS011;11349;53.412;-1.328;2023-08-06T06:39:34;6.47;;;2.15;;
22363;SDS011;11349;53.412;-1.328;2023-08-06T06:42:00;4.68;;;2.15;;
22363;SDS011;11349;53.412;-1.328;2023-08-06T06:44:25;4.15;;;1.80;;
22363;SDS011;11349;53.412;-1.328;2023-08-06T06:46:51;5.93;;;2.70;;
22363;SDS011;11349;53.412;-1.328;2023-08-06T06:49:17;3.90;;;2.10;;
22363;SDS011;11349;53.412;-1.328;2023-08-06T06:51:43;4.78;;;2.55;;
22363;SDS011;11349;53.412;-1.328;2023-08-06T06:54:09;7.35;;;3.00;;
22363;SDS011;11349;53.412;-1.328;2023-08-06T06:56:34;4.45;;;2.42;;
22363;SDS011;11349;53.412;-1.328;2023-08-06T06:59:00;3.65;;;2.10;;
22363;SDS011;11349;53.412;-1.328;2023-08-06T07:01:26;3.58;;;1.70;;
22363;SDS011;11349;53.412;-1.328;2023-08-06T07:03:51;4.88;;;1.88;;
22363;SDS011;11349;53.412;-1.328;2023-08-06T07:06:17;4.15;;;1.80;;
22363;SDS011;11349;53.412;-1.328;2023-08-06T07:08:43;3.90;;;1.70;;
22363;SDS011;11349;53.412;-1.328;2023-08-06T07:11:09;4.28;;;1.70;;
22363;SDS011;11349;53.412;-1.328;2023-08-06T07:13:35;6.85;;;2.10;;
22363;SDS011;11349;53.412;-1.328;2023-08-06T07:16:01;4.97;;;2.50;;
22363;SDS011;11349;53.412;-1.328;2023-08-06T07:18:27;4.03;;;2.10;;
22363;SDS011;11349;53.412;-1.328;2023-08-06T07:20:53;5.03;;;1.80;;
22363;SDS011;11349;53.412;-1.328;2023-08-06T07:23:20;3.95;;;1.50;;
22363;SDS011;11349;53.412;-1.328;2023-08-06T07:25:50;4.88;;;1.58;;
22363;SDS011;11349;53.412;-1.328;2023-08-06T07:28:16;4.50;;;1.70;;
22363;SDS011;11349;53.412;-1.328;2023-08-06T07:30:42;5.85;;;1.88;;
22363;SDS011;11349;53.412;-1.328;2023-08-06T07:33:09;3.40;;;1.50;;
22363;SDS011;11349;53.412;-1.328;2023-08-06T07:35:35;3.20;;;1.60;;
22363;SDS011;11349;53.412;-1.328;2023-08-06T07:38:01;3.03;;;1.45;;
22363;SDS011;11349;53.412;-1.328;2023-08-06T07:40:27;4.13;;;1.50;;
22363;SDS011;11349;53.412;-1.328;2023-08-06T07:42:53;3.47;;;1.67;;
22363;SDS011;11349;53.412;-1.328;2023-08-06T07:45:19;2.63;;;1.27;;
22363;SDS011;11349;53.412;-1.328;2023-08-06T07:47:45;3.35;;;1.40;;
22363;SDS011;11349;53.412;-1.328;2023-08-06T07:50:11;3.15;;;1.52;;
22363;SDS011;11349;53.412;-1.328;2023-08-06T07:52:38;3.13;;;1.23;;
22363;SDS011;11349;53.412;-1.328;2023-08-06T07:55:04;2.88;;;1.50;;
22363;SDS011;11349;53.412;-1.328;2023-08-06T07:57:33;3.00;;;1.52;;
22363;SDS011;11349;53.412;-1.328;2023-08-06T07:59:59;2.88;;;1.38;;
22363;SDS011;11349;53.412;-1.328;2023-08-06T08:02:26;3.05;;;1.27;;
22363;SDS011;11349;53.412;-1.328;2023-08-06T08:04:52;3.30;;;1.50;;
22363;SDS011;11349;53.412;-1.328;2023-08-06T08:07:18;3.63;;;1.35;;
22363;SDS011;11349;53.412;-1.328;2023-08-06T08:09:44;3.28;;;1.45;;
22363;SDS011;11349;53.412;-1.328;2023-08-06T08:12:09;2.95;;;1.63;;
22363;SDS011;11349;53.412;-1.328;2023-08-06T08:14:35;4.70;;;1.40;;
22363;SDS011;11349;53.412;-1.328;2023-08-06T08:17:02;4.07;;;1.67;;
22363;SDS011;11349;53.412;-1.328;2023-08-06T08:19:29;3.13;;;1.45;;
22363;SDS011;11349;53.412;-1.328;2023-08-06T08:21:55;3.03;;;1.48;;
22363;SDS011;11349;53.412;-1.328;2023-08-06T08:24:21;3.53;;;1.38;;
22363;SDS011;11349;53.412;-1.328;2023-08-06T08:26:51;4.72;;;1.40;;
22363;SDS011;11349;53.412;-1.328;2023-08-06T08:29:17;3.47;;;2.03;;
22363;SDS011;11349;53.412;-1.328;2023-08-06T08:31:43;3.28;;;1.38;;
22363;SDS011;11349;53.412;-1.328;2023-08-06T08:34:09;5.05;;;1.58;;
22363;SDS011;11349;53.412;-1.328;2023-08-06T08:36:35;2.55;;;1.40;;
22363;SDS011;11349;53.412;-1.328;2023-08-06T08:39:01;2.33;;;1.05;;
22363;SDS011;11349;53.412;-1.328;2023-08-06T08:41:29;5.28;;;1.58;;
22363;SDS011;11349;53.412;-1.328;2023-08-06T08:43:56;3.92;;;1.33;;
22363;SDS011;11349;53.412;-1.328;2023-08-06T08:46:25;3.95;;;1.50;;
22363;SDS011;11349;53.412;-1.328;2023-08-06T08:48:54;3.97;;;1.35;;
22363;SDS011;11349;53.412;-1.328;2023-08-06T08:51:22;4.22;;;1.70;;
22363;SDS011;11349;53.412;-1.328;2023-08-06T08:53:48;5.30;;;2.05;;
22363;SDS011;11349;53.412;-1.328;2023-08-06T08:56:18;5.22;;;1.88;;
22363;SDS011;11349;53.412;-1.328;2023-08-06T08:58:44;2.65;;;1.20;;
22363;SDS011;11349;53.412;-1.328;2023-08-06T09:01:10;3.10;;;1.20;;
22363;SDS011;11349;53.412;-1.328;2023-08-06T09:03:39;2.03;;;1.05;;
22363;SDS011;11349;53.412;-1.328;2023-08-06T09:06:07;4.50;;;1.27;;
22363;SDS011;11349;53.412;-1.328;2023-08-06T09:08:37;10.60;;;2.40;;
22363;SDS011;11349;53.412;-1.328;2023-08-06T09:11:08;3.72;;;1.25;;
22363;SDS011;11349;53.412;-1.328;2023-08-06T09:13:37;4.15;;;1.48;;
22363;SDS011;11349;53.412;-1.328;2023-08-06T09:16:03;3.22;;;1.20;;
22363;SDS011;11349;53.412;-1.328;2023-08-06T09:18:30;3.88;;;1.40;;
22363;SDS011;11349;53.412;-1.328;2023-08-06T09:20:56;2.30;;;1.13;;
22363;SDS011;11349;53.412;-1.328;2023-08-06T09:23:29;2.85;;;1.23;;
22363;SDS011;11349;53.412;-1.328;2023-08-06T09:25:56;2.20;;;1.15;;
22363;SDS011;11349;53.412;-1.328;2023-08-06T09:28:22;3.95;;;1.52;;
22363;SDS011;11349;53.412;-1.328;2023-08-06T09:30:50;2.53;;;1.10;;
22363;SDS011;11349;53.412;-1.328;2023-08-06T09:33:20;3.47;;;1.55;;
22363;SDS011;11349;53.412;-1.328;2023-08-06T09:35:47;3.33;;;1.40;;
22363;SDS011;11349;53.412;-1.328;2023-08-06T09:38:13;3.25;;;1.55;;
22363;SDS011;11349;53.412;-1.328;2023-08-06T09:40:39;3.25;;;1.50;;
22363;SDS011;11349;53.412;-1.328;2023-08-06T09:43:05;5.47;;;1.65;;
22363;SDS011;11349;53.412;-1.328;2023-08-06T09:45:35;3.03;;;1.45;;
22363;SDS011;11349;53.412;-1.328;2023-08-06T09:48:05;3.30;;;1.33;;
22363;SDS011;11349;53.412;-1.328;2023-08-06T09:50:33;2.95;;;1.50;;
22363;SDS011;11349;53.412;-1.328;2023-08-06T09:53:06;4.13;;;1.48;;
22363;SDS011;11349;53.412;-1.328;2023-08-06T09:55:33;3.25;;;1.23;;
22363;SDS011;11349;53.412;-1.328;2023-08-06T09:57:59;3.22;;;1.30;;
22363;SDS011;11349;53.412;-1.328;2023-08-06T10:00:26;3.75;;;1.60;;
22363;SDS011;11349;53.412;-1.328;2023-08-06T10:02:53;3.85;;;1.20;;
22363;SDS011;11349;53.412;-1.328;2023-08-06T10:05:21;3.78;;;1.45;;
22363;SDS011;11349;53.412;-1.328;2023-08-06T10:07:48;2.92;;;1.20;;
22363;SDS011;11349;53.412;-1.328;2023-08-06T10:10:16;3.33;;;1.20;;
22363;SDS011;11349;53.412;-1.328;2023-08-06T10:12:49;3.03;;;1.52;;
22363;SDS011;11349;53.412;-1.328;2023-08-06T10:15:17;2.25;;;1.20;;
22363;SDS011;11349;53.412;-1.328;2023-08-06T10:17:50;5.50;;;1.40;;
22363;SDS011;11349;53.412;-1.328;2023-08-06T10:20:19;3.03;;;1.60;;
22363;SDS011;11349;53.412;-1.328;2023-08-06T10:22:58;2.40;;;1.30;;
22363;SDS011;11349;53.412;-1.328;2023-08-06T10:25:30;3.67;;;1.33;;
22363;SDS011;11349;53.412;-1.328;2023-08-06T10:27:57;2.85;;;1.50;;
22363;SDS011;11349;53.412;-1.328;2023-08-06T10:32:55;2.63;;;1.25;;
22363;SDS011;11349;53.412;-1.328;2023-08-06T10:35:28;3.17;;;1.23;;
22363;SDS011;11349;53.412;-1.328;2023-08-06T10:37:57;5.85;;;1.88;;
22363;SDS011;11349;53.412;-1.328;2023-08-06T10:40:24;3.08;;;1.30;;
22363;SDS011;11349;53.412;-1.328;2023-08-06T10:42:51;2.47;;;1.33;;
22363;SDS011;11349;53.412;-1.328;2023-08-06T10:45:17;2.42;;;1.40;;
22363;SDS011;11349;53.412;-1.328;2023-08-06T10:47:44;2.65;;;1.17;;
22363;SDS011;11349;53.412;-1.328;2023-08-06T10:50:14;4.03;;;1.60;;
22363;SDS011;11349;53.412;-1.328;2023-08-06T10:52:45;4.70;;;1.77;;
22363;SDS011;11349;53.412;-1.328;2023-08-06T10:55:12;2.80;;;1.48;;
22363;SDS011;11349;53.412;-1.328;2023-08-06T10:57:38;2.58;;;1.25;;
22363;SDS011;11349;53.412;-1.328;2023-08-06T11:00:04;2.95;;;1.70;;
22363;SDS011;11349;53.412;-1.328;2023-08-06T11:02:35;3.13;;;1.65;;
22363;SDS011;11349;53.412;-1.328;2023-08-06T11:05:08;4.07;;;1.52;;
22363;SDS011;11349;53.412;-1.328;2023-08-06T11:07:35;2.97;;;1.67;;
22363;SDS011;11349;53.412;-1.328;2023-08-06T11:10:04;3.13;;;1.70;;
22363;SDS011;11349;53.412;-1.328;2023-08-06T11:12:32;3.20;;;1.50;;
22363;SDS011;11349;53.412;-1.328;2023-08-06T11:14:58;3.40;;;1.63;;
22363;SDS011;11349;53.412;-1.328;2023-08-06T11:17:25;2.65;;;1.45;;
22363;SDS011;11349;53.412;-1.328;2023-08-06T11:19:52;3.65;;;1.70;;
22363;SDS011;11349;53.412;-1.328;2023-08-06T11:22:19;3.72;;;1.80;;
22363;SDS011;11349;53.412;-1.328;2023-08-06T11:24:46;2.67;;;1.60;;
22363;SDS011;11349;53.412;-1.328;2023-08-06T11:27:16;2.72;;;1.55;;
22363;SDS011;11349;53.412;-1.328;2023-08-06T11:29:43;3.38;;;1.58;;
22363;SDS011;11349;53.412;-1.328;2023-08-06T11:32:09;5.00;;;1.65;;
22363;SDS011;11349;53.412;-1.328;2023-08-06T11:34:36;3.58;;;1.60;;
22363;SDS011;11349;53.412;-1.328;2023-08-06T11:37:02;3.65;;;1.77;;
22363;SDS011;11349;53.412;-1.328;2023-08-06T11:39:35;3.22;;;1.48;;
22363;SDS011;11349;53.412;-1.328;2023-08-06T11:42:07;2.88;;;1.52;;
22363;SDS011;11349;53.412;-1.328;2023-08-06T11:44:36;4.78;;;1.70;;
22363;SDS011;11349;53.412;-1.328;2023-08-06T11:47:05;5.13;;;1.90;;
22363;SDS011;11349;53.412;-1.328;2023-08-06T11:55:04;4.30;;;1.63;;
22363;SDS011;11349;53.412;-1.328;2023-08-06T11:57:33;3.80;;;1.70;;
22363;SDS011;11349;53.412;-1.328;2023-08-06T12:00:04;4.45;;;1.40;;
22363;SDS011;11349;53.412;-1.328;2023-08-06T12:02:32;4.63;;;1.80;;
22363;SDS011;11349;53.412;-1.328;2023-08-06T12:05:13;2.97;;;1.42;;
22363;SDS011;11349;53.412;-1.328;2023-08-06T12:07:49;4.75;;;1.85;;
22363;SDS011;11349;53.412;-1.328;2023-08-06T12:10:17;3.28;;;1.70;;
22363;SDS011;11349;53.412;-1.328;2023-08-06T12:12:44;4.45;;;1.70;;
22363;SDS011;11349;53.412;-1.328;2023-08-06T12:15:10;4.47;;;2.05;;
22363;SDS011;11349;53.412;-1.328;2023-08-06T12:17:36;3.17;;;1.67;;
22363;SDS011;11349;53.412;-1.328;2023-08-06T12:20:03;3.97;;;1.90;;
22363;SDS011;11349;53.412;-1.328;2023-08-06T12:22:30;4.85;;;1.80;;
22363;SDS011;11349;53.412;-1.328;2023-08-06T12:25:00;3.65;;;1.60;;
22363;SDS011;11349;53.412;-1.328;2023-08-06T12:27:28;4.32;;;1.80;;
22363;SDS011;11349;53.412;-1.328;2023-08-06T12:29:54;3.95;;;1.65;;
22363;SDS011;11349;53.412;-1.328;2023-08-06T12:32:19;3.80;;;1.80;;
22363;SDS011;11349;53.412;-1.328;2023-08-06T12:34:45;4.15;;;1.67;;
22363;SDS011;11349;53.412;-1.328;2023-08-06T12:37:11;2.95;;;1.58;;
22363;SDS011;11349;53.412;-1.328;2023-08-06T12:39:36;3.10;;;1.73;;
22363;SDS011;11349;53.412;-1.328;2023-08-06T12:42:03;3.58;;;2.00;;
22363;SDS011;11349;53.412;-1.328;2023-08-06T12:44:30;5.28;;;2.20;;
22363;SDS011;11349;53.412;-1.328;2023-08-06T12:46:56;4.85;;;1.80;;
22363;SDS011;11349;53.412;-1.328;2023-08-06T12:49:22;4.20;;;2.10;;
22363;SDS011;11349;53.412;-1.328;2023-08-06T12:51:49;4.07;;;1.90;;
22363;SDS011;11349;53.412;-1.328;2023-08-06T12:54:19;4.55;;;2.03;;
22363;SDS011;11349;53.412;-1.328;2023-08-06T12:56:45;6.38;;;2.42;;
22363;SDS011;11349;53.412;-1.328;2023-08-06T12:59:13;3.70;;;2.20;;
22363;SDS011;11349;53.412;-1.328;2023-08-06T13:01:40;5.22;;;2.40;;
22363;SDS011;11349;53.412;-1.328;2023-08-06T13:04:06;4.20;;;1.98;;
22363;SDS011;11349;53.412;-1.328;2023-08-06T13:06:32;6.53;;;2.25;;
22363;SDS011;11349;53.412;-1.328;2023-08-06T13:09:08;4.53;;;2.00;;
22363;SDS011;11349;53.412;-1.328;2023-08-06T13:11:34;3.55;;;2.20;;
22363;SDS011;11349;53.412;-1.328;2023-08-06T13:14:04;5.55;;;2.20;;
22363;SDS011;11349;53.412;-1.328;2023-08-06T13:16:38;3.40;;;2.10;;
22363;SDS011;11349;53.412;-1.328;2023-08-06T13:19:08;3.63;;;2.17;;
22363;SDS011;11349;53.412;-1.328;2023-08-06T13:22:20;3.88;;;1.95;;
22363;SDS011;11349;53.412;-1.328;2023-08-06T13:24:28;2.83;;;1.50;;
22363;SDS011;11349;53.412;-1.328;2023-08-06T13:26:54;3.58;;;1.83;;
22363;SDS011;11349;53.412;-1.328;2023-08-06T13:29:20;4.18;;;1.50;;
22363;SDS011;11349;53.412;-1.328;2023-08-06T13:31:46;3.83;;;1.98;;
22363;SDS011;11349;53.412;-1.328;2023-08-06T13:34:12;2.63;;;1.30;;
22363;SDS011;11349;53.412;-1.328;2023-08-06T13:36:40;3.38;;;1.48;;
22363;SDS011;11349;53.412;-1.328;2023-08-06T13:39:05;3.95;;;1.65;;
22363;SDS011;11349;53.412;-1.328;2023-08-06T13:41:31;6.47;;;1.88;;
22363;SDS011;11349;53.412;-1.328;2023-08-06T13:43:57;3.55;;;1.73;;
22363;SDS011;11349;53.412;-1.328;2023-08-06T13:46:22;3.63;;;1.98;;
22363;SDS011;11349;53.412;-1.328;2023-08-06T13:48:49;2.83;;;1.38;;
22363;SDS011;11349;53.412;-1.328;2023-08-06T13:51:18;3.75;;;1.30;;
22363;SDS011;11349;53.412;-1.328;2023-08-06T13:53:44;3.60;;;1.55;;
22363;SDS011;11349;53.412;-1.328;2023-08-06T13:56:10;3.58;;;1.85;;
22363;SDS011;11349;53.412;-1.328;2023-08-06T13:58:36;4.38;;;1.90;;
22363;SDS011;11349;53.412;-1.328;2023-08-06T14:01:03;3.25;;;1.40;;
22363;SDS011;11349;53.412;-1.328;2023-08-06T14:03:29;2.67;;;1.40;;
22363;SDS011;11349;53.412;-1.328;2023-08-06T14:05:54;4.55;;;2.10;;
22363;SDS011;11349;53.412;-1.328;2023-08-06T14:08:21;4.28;;;1.60;;
22363;SDS011;11349;53.412;-1.328;2023-08-06T14:10:48;3.63;;;1.67;;
22363;SDS011;11349;53.412;-1.328;2023-08-06T14:13:14;3.50;;;1.48;;
22363;SDS011;11349;53.412;-1.328;2023-08-06T14:15:40;3.88;;;1.40;;
22363;SDS011;11349;53.412;-1.328;2023-08-06T14:18:08;2.25;;;1.33;;
22363;SDS011;11349;53.412;-1.328;2023-08-06T14:20:34;3.35;;;1.48;;
22363;SDS011;11349;53.412;-1.328;2023-08-06T14:23:00;2.50;;;1.25;;
22363;SDS011;11349;53.412;-1.328;2023-08-06T14:25:26;2.13;;;1.00;;
22363;SDS011;11349;53.412;-1.328;2023-08-06T14:27:52;3.58;;;1.30;;
22363;SDS011;11349;53.412;-1.328;2023-08-06T14:30:17;3.83;;;1.50;;
22363;SDS011;11349;53.412;-1.328;2023-08-06T14:32:43;2.60;;;1.27;;
22363;SDS011;11349;53.412;-1.328;2023-08-06T14:35:09;4.57;;;1.70;;
22363;SDS011;11349;53.412;-1.328;2023-08-06T14:37:35;2.53;;;1.17;;
22363;SDS011;11349;53.412;-1.328;2023-08-06T14:40:01;3.88;;;1.38;;
22363;SDS011;11349;53.412;-1.328;2023-08-06T14:42:27;2.75;;;1.55;;